Sandusky, Ohio
Current Conditions -  °F | °C
As of 2:22 PM on Thursday 23 Oct 2014 (Local Time) from KPCW Reporting Station
NA  
Wind Chill: 55°   Ceiling: NA
Heat Index: 55°   Visibility: NA
Dew Point: 46°   Wind: 8mph
Humidity: 72%   Direction: 340°NNW
Pressure: 30.19"   Gusts: NA
Location:  41.45°N, 82.71°W
Report Text: KPCW 231822Z AUTO 34007KT 13/08 A3019 RMK AO2 $
Loading
Personal Weather Stations






























Interactive Weather Map
Tropical Storm Tracking
New forecast layout! Learn more

10-Day Weather Forecast

Advertisements
Track Severe Weather on mobile